sensor_id;sensor_type;location;lat;lon;timestamp;pressure;altitude;pressure_sealevel;temperature;humidity
64019;BME280;66942;52.138;5.216;2023-03-01T00:01:10;103283.99999999999;;;1.84;64.0
64019;BME280;66942;52.138;5.216;2023-03-01T00:02:49;103284.99999999999;;;1.84;64.23
64019;BME280;66942;52.138;5.216;2023-03-01T00:04:26;103289.00000000001;;;1.81;64.3
64019;BME280;66942;52.138;5.216;2023-03-01T00:07:40;103284.99999999999;;;1.74;64.41
64019;BME280;66942;52.138;5.216;2023-03-01T00:09:16;103283.0;;;1.72;64.55
64019;BME280;66942;52.138;5.216;2023-03-01T00:11:02;103282.0;;;1.68;64.59
64019;BME280;66942;52.138;5.216;2023-03-01T00:12:39;103280.0;;;1.57;64.56
64019;BME280;66942;52.138;5.216;2023-03-01T00:15:52;103282.0;;;1.66;64.48
64019;BME280;66942;52.138;5.216;2023-03-01T00:17:28;103284.99999999999;;;1.72;64.38
64019;BME280;66942;52.138;5.216;2023-03-01T00:19:05;103277.0;;;1.59;64.86
64019;BME280;66942;52.138;5.216;2023-03-01T00:22:17;103276.0;;;1.49;64.67
64019;BME280;66942;52.138;5.216;2023-03-01T00:23:54;103279.0;;;1.57;64.77
64019;BME280;66942;52.138;5.216;2023-03-01T00:25:31;103281.0;;;1.55;64.87
64019;BME280;66942;52.138;5.216;2023-03-01T00:28:43;103283.0;;;1.57;64.63
64019;BME280;66942;52.138;5.216;2023-03-01T00:30:20;103281.0;;;1.6;64.47
64019;BME280;66942;52.138;5.216;2023-03-01T00:31:56;103277.0;;;1.93;63.6
64019;BME280;66942;52.138;5.216;2023-03-01T00:33:32;103268.0;;;2.02;63.09
64019;BME280;66942;52.138;5.216;2023-03-01T00:36:46;103267.0;;;1.72;63.66
64019;BME280;66942;52.138;5.216;2023-03-01T00:38:22;103269.0;;;1.59;64.62
64019;BME280;66942;52.138;5.216;2023-03-01T00:39:58;103267.0;;;1.6;64.59
64019;BME280;66942;52.138;5.216;2023-03-01T00:43:10;103266.00000000001;;;1.62;64.3
64019;BME280;66942;52.138;5.216;2023-03-01T00:44:46;103265.00000000001;;;1.53;64.58
64019;BME280;66942;52.138;5.216;2023-03-01T00:46:25;103266.00000000001;;;1.62;64.38
64019;BME280;66942;52.138;5.216;2023-03-01T00:49:38;103269.0;;;1.66;64.35
64019;BME280;66942;52.138;5.216;2023-03-01T00:51:16;103269.0;;;1.77;64.06
64019;BME280;66942;52.138;5.216;2023-03-01T00:52:53;103267.0;;;1.48;64.64
64019;BME280;66942;52.138;5.216;2023-03-01T00:54:30;103265.00000000001;;;1.62;64.41
64019;BME280;66942;52.138;5.216;2023-03-01T00:57:45;103268.0;;;1.64;64.37
64019;BME280;66942;52.138;5.216;2023-03-01T00:59:22;103267.0;;;1.67;64.0
64019;BME280;66942;52.138;5.216;2023-03-01T01:00:58;103266.00000000001;;;1.51;64.58
64019;BME280;66942;52.138;5.216;2023-03-01T01:04:13;103261.99999999999;;;1.54;64.75
64019;BME280;66942;52.138;5.216;2023-03-01T01:05:49;103263.00000000001;;;1.46;64.91
64019;BME280;66942;52.138;5.216;2023-03-01T01:07:25;103258.99999999999;;;1.59;64.42
64019;BME280;66942;52.138;5.216;2023-03-01T01:10:43;103257.0;;;1.77;63.87
64019;BME280;66942;52.138;5.216;2023-03-01T01:12:20;103259.99999999999;;;1.52;64.39
64019;BME280;66942;52.138;5.216;2023-03-01T01:13:57;103258.0;;;1.41;64.58
64019;BME280;66942;52.138;5.216;2023-03-01T01:15:34;103254.0;;;1.36;64.94
64019;BME280;66942;52.138;5.216;2023-03-01T01:18:46;103250.0;;;1.29;65.14
64019;BME280;66942;52.138;5.216;2023-03-01T01:20:22;103247.0;;;1.19;65.19
64019;BME280;66942;52.138;5.216;2023-03-01T01:21:59;103245.0;;;1.14;65.14
64019;BME280;66942;52.138;5.216;2023-03-01T01:25:12;103244.0;;;1.13;65.59
64019;BME280;66942;52.138;5.216;2023-03-01T01:26:48;103233.99999999999;;;1.16;64.87
64019;BME280;66942;52.138;5.216;2023-03-01T01:28:25;103234.99999999999;;;1.06;65.47
64019;BME280;66942;52.138;5.216;2023-03-01T01:30:02;103230.0;;;1.14;65.3
64019;BME280;66942;52.138;5.216;2023-03-01T01:33:17;103234.99999999999;;;1.19;65.22
64019;BME280;66942;52.138;5.216;2023-03-01T01:34:53;103234.99999999999;;;1.14;65.42
64019;BME280;66942;52.138;5.216;2023-03-01T01:36:30;103229.0;;;1.01;65.92
64019;BME280;66942;52.138;5.216;2023-03-01T01:39:45;103224.0;;;1.11;65.58
64019;BME280;66942;52.138;5.216;2023-03-01T01:41:22;103225.0;;;1.25;65.31
64019;BME280;66942;52.138;5.216;2023-03-01T01:42:59;103221.0;;;1.19;65.25
64019;BME280;66942;52.138;5.216;2023-03-01T01:46:19;103222.0;;;1.05;65.87
64019;BME280;66942;52.138;5.216;2023-03-01T01:47:59;103222.0;;;1.23;65.44
64019;BME280;66942;52.138;5.216;2023-03-01T01:49:42;103224.0;;;0.96;65.52
64019;BME280;66942;52.138;5.216;2023-03-01T01:51:24;103223.0;;;0.96;65.58
64019;BME280;66942;52.138;5.216;2023-03-01T01:53:01;103219.0;;;0.98;65.3
64019;BME280;66942;52.138;5.216;2023-03-01T01:56:22;103217.0;;;1.01;65.33
64019;BME280;66942;52.138;5.216;2023-03-01T01:58:03;103214.00000000001;;;0.94;65.52
64019;BME280;66942;52.138;5.216;2023-03-01T01:59:46;103217.0;;;0.9;65.73
64019;BME280;66942;52.138;5.216;2023-03-01T02:01:26;103222.0;;;0.98;65.52
64019;BME280;66942;52.138;5.216;2023-03-01T02:04:44;103211.99999999999;;;0.99;65.56
64019;BME280;66942;52.138;5.216;2023-03-01T02:06:27;103209.99999999999;;;0.79;65.35
64019;BME280;66942;52.138;5.216;2023-03-01T02:08:06;103208.99999999999;;;0.77;65.94
64019;BME280;66942;52.138;5.216;2023-03-01T02:09:46;103209.99999999999;;;0.91;65.58
64019;BME280;66942;52.138;5.216;2023-03-01T02:13:03;103207.0;;;1.0;65.34
64019;BME280;66942;52.138;5.216;2023-03-01T02:14:40;103206.0;;;0.93;65.3
64019;BME280;66942;52.138;5.216;2023-03-01T02:16:16;103209.99999999999;;;0.76;65.75
64019;BME280;66942;52.138;5.216;2023-03-01T02:19:43;103206.0;;;0.75;65.62
64019;BME280;66942;52.138;5.216;2023-03-01T02:21:41;103204.0;;;0.79;65.39
64019;BME280;66942;52.138;5.216;2023-03-01T02:23:25;103206.0;;;0.64;65.8
64019;BME280;66942;52.138;5.216;2023-03-01T02:25:11;103205.0;;;0.69;65.47
64019;BME280;66942;52.138;5.216;2023-03-01T02:26:53;103209.99999999999;;;0.87;64.95
64019;BME280;66942;52.138;5.216;2023-03-01T02:30:10;103208.0;;;0.81;65.12
64019;BME280;66942;52.138;5.216;2023-03-01T02:31:47;103205.0;;;0.87;65.11
64019;BME280;66942;52.138;5.216;2023-03-01T02:33:24;103206.0;;;0.86;65.13
64019;BME280;66942;52.138;5.216;2023-03-01T02:35:02;103200.0;;;1.16;64.25
64019;BME280;66942;52.138;5.216;2023-03-01T02:38:18;103196.0;;;0.89;64.94
64019;BME280;66942;52.138;5.216;2023-03-01T02:39:58;103199.0;;;0.82;65.06
64019;BME280;66942;52.138;5.216;2023-03-01T02:41:38;103200.0;;;0.78;64.91
64019;BME280;66942;52.138;5.216;2023-03-01T02:43:19;103195.0;;;0.78;65.33
64019;BME280;66942;52.138;5.216;2023-03-01T02:46:42;103191.00000000001;;;0.74;64.97
64019;BME280;66942;52.138;5.216;2023-03-01T02:48:18;103188.00000000001;;;0.66;65.59
64019;BME280;66942;52.138;5.216;2023-03-01T02:49:55;103182.0;;;0.69;64.98
64019;BME280;66942;52.138;5.216;2023-03-01T02:53:28;103182.0;;;0.64;65.0
64019;BME280;66942;52.138;5.216;2023-03-01T02:55:11;103186.99999999999;;;0.76;65.02
64019;BME280;66942;52.138;5.216;2023-03-01T02:56:50;103176.0;;;0.62;65.47
64019;BME280;66942;52.138;5.216;2023-03-01T02:58:27;103174.0;;;0.6;65.27
64019;BME280;66942;52.138;5.216;2023-03-01T03:00:06;103175.0;;;0.51;65.41
64019;BME280;66942;52.138;5.216;2023-03-01T03:03:21;103175.0;;;0.49;65.33
64019;BME280;66942;52.138;5.216;2023-03-01T03:04:57;103173.0;;;0.58;65.33
64019;BME280;66942;52.138;5.216;2023-03-01T03:06:34;103171.0;;;0.43;65.23
64019;BME280;66942;52.138;5.216;2023-03-01T03:09:46;103170.0;;;0.38;65.91
64019;BME280;66942;52.138;5.216;2023-03-01T03:11:22;103170.0;;;0.5;65.33
64019;BME280;66942;52.138;5.216;2023-03-01T03:13:01;103169.0;;;0.69;64.94
64019;BME280;66942;52.138;5.216;2023-03-01T03:14:37;103168.0;;;0.5;65.55
64019;BME280;66942;52.138;5.216;2023-03-01T03:17:50;103166.00000000001;;;0.48;65.08
64019;BME280;66942;52.138;5.216;2023-03-01T03:19:28;103169.0;;;0.43;65.13
64019;BME280;66942;52.138;5.216;2023-03-01T03:21:07;103167.0;;;0.39;65.22
64019;BME280;66942;52.138;5.216;2023-03-01T03:24:19;103166.00000000001;;;0.4;64.97
64019;BME280;66942;52.138;5.216;2023-03-01T03:25:55;103158.99999999999;;;0.41;65.17
64019;BME280;66942;52.138;5.216;2023-03-01T03:27:32;103153.0;;;0.31;65.24
64019;BME280;66942;52.138;5.216;2023-03-01T03:30:44;103147.0;;;0.38;65.49
64019;BME280;66942;52.138;5.216;2023-03-01T03:32:20;103144.0;;;0.33;65.56
64019;BME280;66942;52.138;5.216;2023-03-01T03:33:56;103142.0;;;0.43;65.22
64019;BME280;66942;52.138;5.216;2023-03-01T03:35:34;103140.00000000001;;;0.41;65.05
64019;BME280;66942;52.138;5.216;2023-03-01T03:38:52;103136.99999999999;;;0.32;65.37
64019;BME280;66942;52.138;5.216;2023-03-01T03:40:29;103136.99999999999;;;0.19;65.64
64019;BME280;66942;52.138;5.216;2023-03-01T03:42:08;103139.00000000001;;;0.27;65.22
64019;BME280;66942;52.138;5.216;2023-03-01T03:45:20;103142.0;;;0.3;65.0
64019;BME280;66942;52.138;5.216;2023-03-01T03:46:56;103139.00000000001;;;0.36;64.77
64019;BME280;66942;52.138;5.216;2023-03-01T03:48:33;103140.00000000001;;;0.32;64.89
64019;BME280;66942;52.138;5.216;2023-03-01T03:50:11;103133.0;;;0.4;64.69
64019;BME280;66942;52.138;5.216;2023-03-01T03:53:25;103131.0;;;0.42;64.72
64019;BME280;66942;52.138;5.216;2023-03-01T03:55:04;103131.0;;;0.36;64.88
64019;BME280;66942;52.138;5.216;2023-03-01T03:56:40;103122.0;;;0.54;64.38
64019;BME280;66942;52.138;5.216;2023-03-01T03:59:54;103118.0;;;0.58;64.12
64019;BME280;66942;52.138;5.216;2023-03-01T04:01:31;103121.0;;;0.44;64.5
64019;BME280;66942;52.138;5.216;2023-03-01T04:03:08;103121.0;;;0.31;64.7
64019;BME280;66942;52.138;5.216;2023-03-01T04:06:21;103123.0;;;0.35;64.41
64019;BME280;66942;52.138;5.216;2023-03-01T04:07:59;103119.0;;;0.21;64.75
64019;BME280;66942;52.138;5.216;2023-03-01T04:09:35;103121.0;;;0.24;64.72
64019;BME280;66942;52.138;5.216;2023-03-01T04:11:12;103124.0;;;0.33;64.3
64019;BME280;66942;52.138;5.216;2023-03-01T04:14:24;103127.0;;;0.33;64.22
64019;BME280;66942;52.138;5.216;2023-03-01T04:16:01;103126.0;;;0.18;64.61
64019;BME280;66942;52.138;5.216;2023-03-01T04:17:37;103125.0;;;0.17;64.61
64019;BME280;66942;52.138;5.216;2023-03-01T04:20:49;103129.0;;;0.21;64.52
64019;BME280;66942;52.138;5.216;2023-03-01T04:22:26;103128.0;;;0.18;64.6
64019;BME280;66942;52.138;5.216;2023-03-01T04:24:03;103128.0;;;-0.03;64.8
64019;BME280;66942;52.138;5.216;2023-03-01T04:27:17;103124.0;;;0.08;64.94
64019;BME280;66942;52.138;5.216;2023-03-01T04:28:54;103126.0;;;0.11;64.8
64019;BME280;66942;52.138;5.216;2023-03-01T04:30:30;103128.0;;;0.43;63.98
64019;BME280;66942;52.138;5.216;2023-03-01T04:32:06;103129.0;;;0.22;64.49
64019;BME280;66942;52.138;5.216;2023-03-01T04:35:20;103126.0;;;0.02;64.66
64019;BME280;66942;52.138;5.216;2023-03-01T04:36:56;103127.0;;;-0.11;65.2
64019;BME280;66942;52.138;5.216;2023-03-01T04:38:33;103128.0;;;0.03;64.91
64019;BME280;66942;52.138;5.216;2023-03-01T04:41:46;103126.0;;;0.08;64.69
64019;BME280;66942;52.138;5.216;2023-03-01T04:43:23;103127.0;;;0.1;64.42
64019;BME280;66942;52.138;5.216;2023-03-01T04:44:59;103120.0;;;0.11;64.45
64019;BME280;66942;52.138;5.216;2023-03-01T04:46:36;103117.0;;;0.05;64.61
64019;BME280;66942;52.138;5.216;2023-03-01T04:49:49;103117.0;;;0.0;64.72
64019;BME280;66942;52.138;5.216;2023-03-01T04:51:25;103115.00000000001;;;0.05;64.67
64019;BME280;66942;52.138;5.216;2023-03-01T04:53:01;103117.0;;;0.0;64.77
64019;BME280;66942;52.138;5.216;2023-03-01T04:56:15;103108.99999999999;;;0.17;64.35
64019;BME280;66942;52.138;5.216;2023-03-01T04:57:52;103109.99999999999;;;0.29;64.12
64019;BME280;66942;52.138;5.216;2023-03-01T04:59:29;103106.0;;;0.02;64.87
64019;BME280;66942;52.138;5.216;2023-03-01T05:02:48;103105.0;;;0.03;64.99
64019;BME280;66942;52.138;5.216;2023-03-01T05:04:24;103101.0;;;0.0;65.0
64019;BME280;66942;52.138;5.216;2023-03-01T05:06:00;103096.0;;;0.0;64.69
64019;BME280;66942;52.138;5.216;2023-03-01T05:07:36;103095.0;;;-0.03;64.56
64019;BME280;66942;52.138;5.216;2023-03-01T05:10:50;103092.0;;;-0.18;65.06
64019;BME280;66942;52.138;5.216;2023-03-01T05:12:28;103094.0;;;-0.15;64.92
64019;BME280;66942;52.138;5.216;2023-03-01T05:17:18;103089.00000000001;;;-0.14;64.99
64019;BME280;66942;52.138;5.216;2023-03-01T05:18:54;103083.99999999999;;;0.03;64.66
64019;BME280;66942;52.138;5.216;2023-03-01T05:20:30;103083.0;;;0.03;64.72
64019;BME280;66942;52.138;5.216;2023-03-01T05:23:43;103089.00000000001;;;-0.13;65.09
64019;BME280;66942;52.138;5.216;2023-03-01T05:25:20;103082.0;;;-0.02;64.52
64019;BME280;66942;52.138;5.216;2023-03-01T05:26:57;103077.0;;;-0.12;64.83
64019;BME280;66942;52.138;5.216;2023-03-01T05:28:35;103074.0;;;-0.13;65.02
64019;BME280;66942;52.138;5.216;2023-03-01T05:31:48;103066.00000000001;;;0.0;64.8
64019;BME280;66942;52.138;5.216;2023-03-01T05:33:25;103056.0;;;0.13;64.38
64019;BME280;66942;52.138;5.216;2023-03-01T05:35:03;103058.99999999999;;;0.2;64.09
64019;BME280;66942;52.138;5.216;2023-03-01T05:38:16;103052.0;;;0.2;64.11
64019;BME280;66942;52.138;5.216;2023-03-01T05:39:52;103055.0;;;0.24;64.12
64019;BME280;66942;52.138;5.216;2023-03-01T05:41:28;103059.99999999999;;;0.05;64.83
64019;BME280;66942;52.138;5.216;2023-03-01T05:43:05;103055.0;;;-0.11;64.99
64019;BME280;66942;52.138;5.216;2023-03-01T05:46:18;103057.0;;;0.02;64.98
64019;BME280;66942;52.138;5.216;2023-03-01T05:47:54;103047.0;;;0.08;64.74
64019;BME280;66942;52.138;5.216;2023-03-01T05:49:31;103047.0;;;-0.08;64.92
64019;BME280;66942;52.138;5.216;2023-03-01T05:52:44;103042.0;;;-0.17;65.36
64019;BME280;66942;52.138;5.216;2023-03-01T05:54:21;103046.0;;;-0.1;64.97
64019;BME280;66942;52.138;5.216;2023-03-01T05:55:59;103042.0;;;-0.13;65.17
64019;BME280;66942;52.138;5.216;2023-03-01T05:59:11;103044.0;;;-0.08;64.6
64019;BME280;66942;52.138;5.216;2023-03-01T06:00:48;103041.00000000001;;;-0.03;64.85
64019;BME280;66942;52.138;5.216;2023-03-01T06:02:24;103040.00000000001;;;0.13;64.47
64019;BME280;66942;52.138;5.216;2023-03-01T06:04:00;103039.00000000001;;;0.25;64.2
64019;BME280;66942;52.138;5.216;2023-03-01T06:07:15;103042.0;;;0.01;64.95
64019;BME280;66942;52.138;5.216;2023-03-01T06:08:51;103043.0;;;-0.1;65.02
64019;BME280;66942;52.138;5.216;2023-03-01T06:10:28;103042.0;;;0.1;64.62
64019;BME280;66942;52.138;5.216;2023-03-01T06:13:43;103040.00000000001;;;0.09;64.59
64019;BME280;66942;52.138;5.216;2023-03-01T06:15:20;103040.00000000001;;;-0.16;64.63
64019;BME280;66942;52.138;5.216;2023-03-01T06:16:57;103041.00000000001;;;-0.1;64.87
64019;BME280;66942;52.138;5.216;2023-03-01T06:20:13;103041.00000000001;;;-0.15;64.91
64019;BME280;66942;52.138;5.216;2023-03-01T06:21:50;103043.0;;;-0.28;65.37
64019;BME280;66942;52.138;5.216;2023-03-01T06:23:26;103047.0;;;-0.08;64.88
64019;BME280;66942;52.138;5.216;2023-03-01T06:25:04;103047.0;;;-0.06;64.64
64019;BME280;66942;52.138;5.216;2023-03-01T06:28:16;103048.0;;;-0.02;64.61
64019;BME280;66942;52.138;5.216;2023-03-01T06:29:53;103047.0;;;-0.18;64.63
64019;BME280;66942;52.138;5.216;2023-03-01T06:31:29;103050.0;;;-0.15;64.78
64019;BME280;66942;52.138;5.216;2023-03-01T06:34:41;103052.0;;;-0.14;64.8
64019;BME280;66942;52.138;5.216;2023-03-01T06:36:17;103051.0;;;-0.08;64.58
64019;BME280;66942;52.138;5.216;2023-03-01T06:37:53;103055.0;;;-0.15;64.63
64019;BME280;66942;52.138;5.216;2023-03-01T06:41:07;103053.0;;;-0.08;64.66
64019;BME280;66942;52.138;5.216;2023-03-01T06:42:47;103053.0;;;0.15;64.19
64019;BME280;66942;52.138;5.216;2023-03-01T06:44:25;103051.0;;;0.08;64.19
64019;BME280;66942;52.138;5.216;2023-03-01T06:46:04;103051.0;;;0.03;64.67
64019;BME280;66942;52.138;5.216;2023-03-01T06:49:17;103046.0;;;0.02;64.52
64019;BME280;66942;52.138;5.216;2023-03-01T06:50:52;103048.0;;;0.08;64.38
64019;BME280;66942;52.138;5.216;2023-03-01T06:52:30;103047.0;;;0.05;64.41
64019;BME280;66942;52.138;5.216;2023-03-01T06:55:43;103051.0;;;-0.03;65.06
64019;BME280;66942;52.138;5.216;2023-03-01T06:57:19;103053.0;;;0.0;64.91
64019;BME280;66942;52.138;5.216;2023-03-01T06:58:55;103054.0;;;-0.09;65.19
64019;BME280;66942;52.138;5.216;2023-03-01T07:00:32;103056.0;;;-0.04;65.17
64019;BME280;66942;52.138;5.216;2023-03-01T07:03:47;103058.0;;;0.03;64.86
64019;BME280;66942;52.138;5.216;2023-03-01T07:05:23;103055.0;;;0.42;63.97
64019;BME280;66942;52.138;5.216;2023-03-01T07:06:59;103045.0;;;0.35;64.19
64019;BME280;66942;52.138;5.216;2023-03-01T07:10:11;103045.0;;;0.26;64.58
64019;BME280;66942;52.138;5.216;2023-03-01T07:11:49;103043.0;;;0.58;63.95
64019;BME280;66942;52.138;5.216;2023-03-01T07:13:26;103045.0;;;0.52;64.11
64019;BME280;66942;52.138;5.216;2023-03-01T07:16:40;103045.0;;;0.42;64.73
64019;BME280;66942;52.138;5.216;2023-03-01T07:18:16;103044.0;;;0.43;64.66
64019;BME280;66942;52.138;5.216;2023-03-01T07:19:52;103042.0;;;0.47;64.61
64019;BME280;66942;52.138;5.216;2023-03-01T07:21:29;103051.0;;;0.54;64.62
64019;BME280;66942;52.138;5.216;2023-03-01T07:24:43;103049.0;;;0.65;64.17
64019;BME280;66942;52.138;5.216;2023-03-01T07:26:19;103051.0;;;0.68;64.33
64019;BME280;66942;52.138;5.216;2023-03-01T07:27:55;103054.0;;;0.78;64.2
64019;BME280;66942;52.138;5.216;2023-03-01T07:31:07;103054.0;;;0.94;64.02
64019;BME280;66942;52.138;5.216;2023-03-01T07:32:44;103061.99999999999;;;0.92;64.38
64019;BME280;66942;52.138;5.216;2023-03-01T07:34:20;103063.00000000001;;;0.86;64.38
64019;BME280;66942;52.138;5.216;2023-03-01T07:37:33;103059.99999999999;;;1.0;64.42
64019;BME280;66942;52.138;5.216;2023-03-01T07:39:09;103058.0;;;1.1;64.31
64019;BME280;66942;52.138;5.216;2023-03-01T07:40:46;103067.0;;;0.93;64.67
64019;BME280;66942;52.138;5.216;2023-03-01T07:42:22;103061.99999999999;;;1.1;64.73
64019;BME280;66942;52.138;5.216;2023-03-01T07:45:35;103067.0;;;1.21;64.47
64019;BME280;66942;52.138;5.216;2023-03-01T07:47:11;103066.00000000001;;;1.29;64.69
64019;BME280;66942;52.138;5.216;2023-03-01T07:48:47;103065.00000000001;;;1.33;64.7
64019;BME280;66942;52.138;5.216;2023-03-01T07:51:59;103067.0;;;1.37;64.7
64019;BME280;66942;52.138;5.216;2023-03-01T07:53:36;103064.00000000001;;;1.53;64.33
64019;BME280;66942;52.138;5.216;2023-03-01T07:55:14;103064.00000000001;;;1.61;64.3
64019;BME280;66942;52.138;5.216;2023-03-01T07:58:26;103061.99999999999;;;1.59;64.58
64019;BME280;66942;52.138;5.216;2023-03-01T08:00:03;103068.0;;;1.76;64.48
64019;BME280;66942;52.138;5.216;2023-03-01T08:01:40;103069.0;;;1.81;64.42
64019;BME280;66942;52.138;5.216;2023-03-01T08:03:17;103071.0;;;1.88;64.58
64019;BME280;66942;52.138;5.216;2023-03-01T08:06:29;103074.0;;;1.98;64.7
64019;BME280;66942;52.138;5.216;2023-03-01T08:08:05;103073.0;;;2.07;64.7
64019;BME280;66942;52.138;5.216;2023-03-01T08:09:42;103070.0;;;2.29;64.31
64019;BME280;66942;52.138;5.216;2023-03-01T08:12:54;103073.0;;;2.58;63.62
64019;BME280;66942;52.138;5.216;2023-03-01T08:14:30;103070.0;;;2.5;63.97
64019;BME280;66942;52.138;5.216;2023-03-01T08:16:08;103073.0;;;2.73;63.65
64019;BME280;66942;52.138;5.216;2023-03-01T08:19:25;103065.00000000001;;;2.9;64.2
64019;BME280;66942;52.138;5.216;2023-03-01T08:21:03;103057.0;;;3.36;63.68
64019;BME280;66942;52.138;5.216;2023-03-01T08:22:40;103058.99999999999;;;3.57;63.87
64019;BME280;66942;52.138;5.216;2023-03-01T08:24:16;103057.0;;;3.8;63.68
64019;BME280;66942;52.138;5.216;2023-03-01T08:27:28;103053.0;;;4.16;62.24
64019;BME280;66942;52.138;5.216;2023-03-01T08:29:04;103050.0;;;4.47;61.86
64019;BME280;66942;52.138;5.216;2023-03-01T08:30:41;103049.0;;;4.43;62.29
64019;BME280;66942;52.138;5.216;2023-03-01T08:33:55;103051.0;;;4.72;62.18
64019;BME280;66942;52.138;5.216;2023-03-01T08:35:33;103049.0;;;4.82;60.63
64019;BME280;66942;52.138;5.216;2023-03-01T08:37:09;103053.0;;;5.16;60.35
64019;BME280;66942;52.138;5.216;2023-03-01T08:40:22;103051.0;;;5.68;58.78
64019;BME280;66942;52.138;5.216;2023-03-01T08:41:58;103048.0;;;5.89;58.68
64019;BME280;66942;52.138;5.216;2023-03-01T08:43:34;103048.0;;;6.18;57.52
64019;BME280;66942;52.138;5.216;2023-03-01T08:45:11;103051.0;;;6.09;58.54
64019;BME280;66942;52.138;5.216;2023-03-01T08:48:23;103047.0;;;6.58;56.53
64019;BME280;66942;52.138;5.216;2023-03-01T08:50:01;103046.0;;;6.33;58.07
64019;BME280;66942;52.138;5.216;2023-03-01T08:51:38;103042.0;;;6.54;56.33
64019;BME280;66942;52.138;5.216;2023-03-01T08:54:51;103044.0;;;6.45;57.88
64019;BME280;66942;52.138;5.216;2023-03-01T08:56:27;103043.0;;;6.93;55.3
64019;BME280;66942;52.138;5.216;2023-03-01T08:58:03;103041.00000000001;;;7.1;54.69
64019;BME280;66942;52.138;5.216;2023-03-01T09:01:17;103038.00000000001;;;7.12;53.18
64019;BME280;66942;52.138;5.216;2023-03-01T09:02:55;103031.0;;;7.26;50.39
64019;BME280;66942;52.138;5.216;2023-03-01T09:04:31;103032.0;;;7.68;50.35
64019;BME280;66942;52.138;5.216;2023-03-01T09:06:07;103033.0;;;7.92;52.24
64019;BME280;66942;52.138;5.216;2023-03-01T09:09:20;103031.0;;;8.0;51.65
64019;BME280;66942;52.138;5.216;2023-03-01T09:10:56;103022.0;;;8.47;48.32
64019;BME280;66942;52.138;5.216;2023-03-01T09:12:33;103018.0;;;8.58;51.49
64019;BME280;66942;52.138;5.216;2023-03-01T09:15:45;103013.00000000001;;;9.28;47.32
64019;BME280;66942;52.138;5.216;2023-03-01T09:17:21;103004.0;;;9.43;46.7
64019;BME280;66942;52.138;5.216;2023-03-01T09:18:57;103011.99999999999;;;9.82;46.01
64019;BME280;66942;52.138;5.216;2023-03-01T09:22:09;103004.0;;;9.66;46.42
64019;BME280;66942;52.138;5.216;2023-03-01T09:23:47;103007.0;;;9.98;48.01
64019;BME280;66942;52.138;5.216;2023-03-01T09:25:24;102999.0;;;10.03;46.37
64019;BME280;66942;52.138;5.216;2023-03-01T09:27:00;103002.0;;;10.77;42.65
64019;BME280;66942;52.138;5.216;2023-03-01T09:30:14;102994.0;;;11.03;40.86
64019;BME280;66942;52.138;5.216;2023-03-01T09:31:49;102992.0;;;11.28;41.31
64019;BME280;66942;52.138;5.216;2023-03-01T09:33:26;102991.00000000001;;;11.01;44.06
64019;BME280;66942;52.138;5.216;2023-03-01T09:36:40;102994.0;;;11.17;41.77
64019;BME280;66942;52.138;5.216;2023-03-01T09:38:16;102991.00000000001;;;11.5;43.39
64019;BME280;66942;52.138;5.216;2023-03-01T09:39:52;102988.00000000001;;;11.35;40.67
64019;BME280;66942;52.138;5.216;2023-03-01T09:43:40;102983.99999999999;;;11.48;39.54
64019;BME280;66942;52.138;5.216;2023-03-01T09:45:28;102981.0;;;11.38;39.74
64019;BME280;66942;52.138;5.216;2023-03-01T09:47:14;102980.0;;;12.02;37.71
64019;BME280;66942;52.138;5.216;2023-03-01T09:48:56;102977.0;;;11.99;37.0
64019;BME280;66942;52.138;5.216;2023-03-01T09:50:39;102980.0;;;12.42;37.18
64019;BME280;66942;52.138;5.216;2023-03-01T09:52:23;102979.0;;;12.03;39.21
64019;BME280;66942;52.138;5.216;2023-03-01T09:55:43;102979.0;;;12.37;36.83
64019;BME280;66942;52.138;5.216;2023-03-01T09:57:27;102980.0;;;12.14;39.58
64019;BME280;66942;52.138;5.216;2023-03-01T09:59:16;102980.0;;;12.42;38.06
64019;BME280;66942;52.138;5.216;2023-03-01T10:01:03;102980.0;;;12.23;36.5
64019;BME280;66942;52.138;5.216;2023-03-01T10:02:49;102980.0;;;12.25;40.74
64019;BME280;66942;52.138;5.216;2023-03-01T10:06:20;102983.99999999999;;;11.88;35.92
64019;BME280;66942;52.138;5.216;2023-03-01T10:08:06;102981.0;;;12.0;37.71
64019;BME280;66942;52.138;5.216;2023-03-01T10:10:05;102979.0;;;12.11;39.21
64019;BME280;66942;52.138;5.216;2023-03-01T10:11:43;102976.0;;;11.65;37.06
64019;BME280;66942;52.138;5.216;2023-03-01T10:13:24;102981.0;;;11.59;37.54
64019;BME280;66942;52.138;5.216;2023-03-01T10:15:06;102982.0;;;11.77;38.24
64019;BME280;66942;52.138;5.216;2023-03-01T10:18:30;102979.0;;;11.74;37.06
64019;BME280;66942;52.138;5.216;2023-03-01T10:20:19;102976.0;;;11.46;38.19
64019;BME280;66942;52.138;5.216;2023-03-01T10:22:03;102971.0;;;11.44;38.64
64019;BME280;66942;52.138;5.216;2023-03-01T10:23:46;102968.0;;;11.69;38.01
64019;BME280;66942;52.138;5.216;2023-03-01T10:27:23;102968.0;;;11.17;37.42
64019;BME280;66942;52.138;5.216;2023-03-01T10:29:03;102963.00000000001;;;11.36;38.24
64019;BME280;66942;52.138;5.216;2023-03-01T10:30:41;102963.00000000001;;;11.05;39.1
64019;BME280;66942;52.138;5.216;2023-03-01T10:32:17;102963.00000000001;;;10.79;39.0
64019;BME280;66942;52.138;5.216;2023-03-01T10:33:54;102953.0;;;10.81;39.24
64019;BME280;66942;52.138;5.216;2023-03-01T10:37:12;102967.0;;;10.18;39.96
64019;BME280;66942;52.138;5.216;2023-03-01T10:38:50;102954.0;;;10.35;40.19
64019;BME280;66942;52.138;5.216;2023-03-01T10:40:28;102953.0;;;10.29;39.79
64019;BME280;66942;52.138;5.216;2023-03-01T10:43:56;102957.0;;;10.02;40.67
64019;BME280;66942;52.138;5.216;2023-03-01T10:45:35;102943.0;;;10.51;40.04
64019;BME280;66942;52.138;5.216;2023-03-01T10:47:15;102950.0;;;9.98;39.47
64019;BME280;66942;52.138;5.216;2023-03-01T10:49:25;102952.0;;;10.58;39.57
64019;BME280;66942;52.138;5.216;2023-03-01T10:51:06;102950.0;;;10.54;38.62
64019;BME280;66942;52.138;5.216;2023-03-01T10:52:56;102942.0;;;10.63;37.89